Time;durP1;ratioP1;P1;durP2;ratioP2;P2;SDS_P1;SDS_P2;PMS_P1;PMS_P2;Temp;Humidity;BMP_temperature;BMP_pressure;BME280_temperature;BME280_humidity;BME280_pressure;Samples;Min_cycle;Max_cycle;Signal;HPM_P1;HPM_P2
2023/09/02 00:01:43;;;;;;;4.37;3.90;;;;;;;13.28;100.00;100619.28;5007789;28;20288;-71
2023/09/02 00:04:09;;;;;;;5.87;4.30;;;;;;;13.38;100.00;100629.09;5006149;28;20694;-70
2023/09/02 00:06:36;;;;;;;5.30;4.50;;;;;;;13.41;100.00;100622.91;5013214;28;20242;-70
2023/09/02 00:09:03;;;;;;;5.07;3.80;;;;;;;13.38;100.00;100618.44;5006548;28;20430;-71
2023/09/02 00:11:29;;;;;;;5.70;4.00;;;;;;;13.31;100.00;100619.28;5013654;28;20210;-70
2023/09/02 00:13:56;;;;;;;5.23;4.33;;;;;;;13.29;100.00;100623.72;5007286;28;21814;-71
2023/09/02 00:16:22;;;;;;;5.17;3.97;;;;;;;13.35;100.00;100617.53;5009012;28;20579;-71
2023/09/02 00:18:49;;;;;;;5.27;4.30;;;;;;;13.38;100.00;100617.56;5004687;28;20228;-70
2023/09/02 00:21:15;;;;;;;5.60;4.30;;;;;;;13.32;100.00;100617.53;5007689;28;20284;-71
2023/09/02 00:23:45;;;;;;;7.37;3.73;;;;;;;13.31;100.00;100611.31;5006477;28;20223;-71
2023/09/02 00:26:14;;;;;;;5.30;3.93;;;;;;;13.18;100.00;100606.78;5006090;28;20204;-71
2023/09/02 00:28:41;;;;;;;8.33;4.47;;;;;;;13.08;100.00;100620.88;5012463;28;20227;-71
2023/09/02 00:31:07;;;;;;;7.07;4.07;;;;;;;13.02;100.00;100618.19;5006844;28;20231;-70
2023/09/02 00:33:33;;;;;;;4.97;3.87;;;;;;;12.99;100.00;100627.03;5008330;28;20311;-71
2023/09/02 00:36:00;;;;;;;5.50;4.53;;;;;;;12.94;100.00;100620.78;5013634;28;20295;-70
2023/09/02 00:38:26;;;;;;;4.67;3.63;;;;;;;13.02;100.00;100624.38;5001382;28;20212;-71
2023/09/02 00:41:02;;;;;;;6.40;4.00;;;;;;;13.00;100.00;100618.16;5007411;28;20196;-71
2023/09/02 00:43:29;;;;;;;4.90;4.13;;;;;;;12.97;100.00;100633.22;5002921;28;20283;-70
2023/09/02 00:45:57;;;;;;;5.43;4.33;;;;;;;12.94;100.00;100646.47;5005995;28;20600;-72
2023/09/02 00:48:23;;;;;;;5.03;3.87;;;;;;;12.82;100.00;100642.84;5006285;28;20295;-71
2023/09/02 00:50:50;;;;;;;7.40;3.70;;;;;;;12.79;100.00;100645.44;5005502;28;20541;-72
2023/09/02 00:53:18;;;;;;;5.37;4.03;;;;;;;12.80;100.00;100649.00;5005809;28;20220;-70
2023/09/02 00:55:47;;;;;;;5.67;4.17;;;;;;;12.81;100.00;100657.03;5006007;28;20212;-70
2023/09/02 00:58:13;;;;;;;7.50;4.43;;;;;;;12.86;100.00;100659.72;5002131;28;20210;-70
2023/09/02 01:00:40;;;;;;;6.53;4.53;;;;;;;13.17;100.00;100656.41;5005868;28;20220;-72
2023/09/02 01:03:07;;;;;;;7.13;4.50;;;;;;;13.10;100.00;100651.03;5005418;28;20200;-71
2023/09/02 01:05:34;;;;;;;4.90;4.37;;;;;;;13.05;100.00;100664.28;5001942;28;20280;-71
2023/09/02 01:08:03;;;;;;;6.87;4.60;;;;;;;13.01;100.00;100664.25;5002683;28;20687;-70
2023/09/02 01:10:36;;;;;;;6.27;4.70;;;;;;;13.10;100.00;100665.19;5003169;28;20223;-69
2023/09/02 01:13:03;;;;;;;7.87;4.93;;;;;;;13.23;100.00;100668.00;5007359;28;20251;-71
2023/09/02 01:15:33;;;;;;;5.93;4.70;;;;;;;13.27;100.00;100668.03;5005228;28;20208;-71
2023/09/02 01:17:59;;;;;;;6.57;4.93;;;;;;;13.11;100.00;100668.75;5001343;28;20204;-72
2023/09/02 01:20:39;;;;;;;6.27;5.10;;;;;;;12.99;100.00;100669.56;5002183;28;20596;-71
2023/09/02 01:23:30;;;;;;;7.03;5.37;;;;;;;12.95;100.00;100665.09;5001387;28;20204;-71
2023/09/02 01:26:21;;;;;;;7.60;4.87;;;;;;;13.08;100.00;100661.66;5003059;28;20696;-72
2023/09/02 01:28:51;;;;;;;7.97;5.40;;;;;;;13.11;100.00;100658.13;5000546;28;20598;-72
2023/09/02 01:31:17;;;;;;;10.70;6.07;;;;;;;13.05;100.00;100666.06;5003141;28;20207;-70
2023/09/02 01:33:48;;;;;;;7.43;5.40;;;;;;;12.94;100.00;100679.28;4995777;28;20263;-72
2023/09/02 01:36:17;;;;;;;5.63;4.60;;;;;;;12.81;100.00;100685.38;4998628;28;20208;-72
2023/09/02 01:38:43;;;;;;;7.67;4.93;;;;;;;12.81;100.00;100685.38;5001200;28;20350;-72
2023/09/02 01:41:11;;;;;;;7.33;4.93;;;;;;;12.89;100.00;100699.59;5001628;28;20678;-72
2023/09/02 01:43:39;;;;;;;6.53;4.73;;;;;;;12.98;100.00;100699.69;5006796;28;20207;-72
2023/09/02 01:46:07;;;;;;;7.27;5.30;;;;;;;12.94;100.00;100700.53;5001185;28;20589;-70
2023/09/02 01:48:34;;;;;;;6.43;5.40;;;;;;;12.94;100.00;100697.88;5003380;28;20214;-72
2023/09/02 01:51:02;;;;;;;6.40;4.73;;;;;;;12.83;100.00;100692.47;4998729;28;20208;-72
2023/09/02 01:53:29;;;;;;;8.20;5.50;;;;;;;12.83;100.00;100692.47;5016618;28;20231;-72
2023/09/02 01:55:57;;;;;;;9.63;6.40;;;;;;;12.81;100.00;100696.88;5000358;28;20262;-71
2023/09/02 01:58:24;;;;;;;8.23;5.90;;;;;;;12.99;100.00;100687.28;5001949;28;20200;-71
2023/09/02 02:00:51;;;;;;;7.07;5.67;;;;;;;12.88;100.00;100697.81;5003360;28;20598;-72
2023/09/02 02:03:27;;;;;;;10.03;5.47;;;;;;;12.90;100.00;100705.81;5003349;28;20271;-72
2023/09/02 02:05:53;;;;;;;6.90;5.40;;;;;;;12.86;100.00;100694.25;5003450;28;20204;-71
2023/09/02 02:08:29;;;;;;;6.77;5.47;;;;;;;12.82;100.00;100697.78;5003424;28;20304;-72
2023/09/02 02:10:59;;;;;;;7.97;5.23;;;;;;;12.77;100.00;100705.69;5004598;28;20628;-73
2023/09/02 02:13:25;;;;;;;6.87;5.20;;;;;;;12.81;100.00;100709.28;5002024;28;20220;-71
2023/09/02 02:15:51;;;;;;;8.33;4.93;;;;;;;12.78;100.00;100706.56;5006108;28;20204;-72
2023/09/02 02:18:18;;;;;;;6.87;5.40;;;;;;;12.74;100.00;100707.41;4999475;28;20208;-71
2023/09/02 02:20:56;;;;;;;8.07;5.20;;;;;;;12.64;100.00;100690.50;5019891;28;20215;-72
2023/09/02 02:23:23;;;;;;;6.47;4.67;;;;;;;12.64;100.00;100705.56;5019094;28;20196;-71
2023/09/02 02:25:49;;;;;;;7.07;4.63;;;;;;;12.63;100.00;100709.97;5002505;28;20204;-73
2023/09/02 02:28:16;;;;;;;8.00;4.90;;;;;;;12.65;100.00;100720.63;5002374;28;20283;-72
2023/09/02 02:30:42;;;;;;;7.90;4.90;;;;;;;12.71;100.00;100718.03;5000176;28;20596;-72
2023/09/02 02:33:08;;;;;;;6.37;4.43;;;;;;;12.70;100.00;100714.47;5015521;28;20604;-70
2023/09/02 02:35:35;;;;;;;8.47;4.73;;;;;;;12.72;100.00;100722.47;4997452;28;20586;-70
2023/09/02 02:38:01;;;;;;;6.70;4.70;;;;;;;12.69;100.00;100725.97;5015162;28;20658;-71
2023/09/02 02:40:28;;;;;;;6.77;4.73;;;;;;;12.63;100.00;100711.75;5005430;28;20219;-72
2023/09/02 02:42:54;;;;;;;7.00;5.17;;;;;;;12.64;100.00;100711.75;4991770;28;20211;-71
2023/09/02 02:45:21;;;;;;;8.03;4.07;;;;;;;12.54;100.00;100718.75;4999652;28;20211;-73
2023/09/02 02:47:47;;;;;;;8.10;4.60;;;;;;;12.51;100.00;100715.19;4997988;28;21445;-71
2023/09/02 02:50:14;;;;;;;5.33;4.00;;;;;;;12.45;100.00;100721.31;5004867;28;20274;-73
2023/09/02 02:52:40;;;;;;;8.13;4.60;;;;;;;12.38;100.00;100710.56;5003850;28;20243;-71
2023/09/02 02:55:07;;;;;;;6.03;4.37;;;;;;;12.40;100.00;100724.75;5000073;28;20204;-71
2023/09/02 02:57:33;;;;;;;6.40;4.60;;;;;;;12.45;100.00;100720.44;5002406;28;20207;-72
2023/09/02 03:00:00;;;;;;;4.83;3.90;;;;;;;12.50;100.00;100716.06;5005064;28;20307;-72
2023/09/02 03:02:26;;;;;;;6.90;4.00;;;;;;;12.58;100.00;100724.09;4994419;28;20217;-72
2023/09/02 03:04:53;;;;;;;12.60;5.97;;;;;;;12.59;100.00;100718.78;5005774;28;20817;-71
2023/09/02 03:07:19;;;;;;;12.23;4.73;;;;;;;12.64;100.00;100724.16;5000121;28;20212;-72
2023/09/02 03:09:46;;;;;;;6.67;5.17;;;;;;;12.69;100.00;100720.66;4999648;28;20889;-73
2023/09/02 03:12:12;;;;;;;12.73;5.90;;;;;;;12.85;100.00;100725.28;5006375;28;20200;-71
2023/09/02 03:14:39;;;;;;;13.43;6.47;;;;;;;13.02;100.00;100729.84;5001907;28;20208;-72
2023/09/02 03:17:05;;;;;;;9.40;5.33;;;;;;;13.11;100.00;100730.81;5003993;28;20208;-72
2023/09/02 03:19:31;;;;;;;10.63;5.83;;;;;;;13.26;100.00;100730.09;5006419;28;20310;-71
2023/09/02 03:21:58;;;;;;;12.93;6.73;;;;;;;13.29;100.00;100723.91;5009515;28;20203;-73
2023/09/02 03:24:24;;;;;;;13.53;6.40;;;;;;;13.29;100.00;100730.13;5001300;28;20576;-72
2023/09/02 03:26:50;;;;;;;14.63;6.93;;;;;;;13.18;100.00;100724.69;5004343;28;20204;-72
2023/09/02 03:29:17;;;;;;;12.03;6.20;;;;;;;13.04;100.00;100718.34;5005693;28;20230;-71
2023/09/02 03:31:43;;;;;;;11.13;5.83;;;;;;;12.97;100.00;100731.56;5005117;28;20204;-73
2023/09/02 03:34:10;;;;;;;10.93;5.60;;;;;;;12.90;100.00;100737.72;5001812;28;20593;-72
2023/09/02 03:36:36;;;;;;;11.23;5.67;;;;;;;12.86;100.00;100740.34;5004043;28;20196;-71
2023/09/02 03:39:03;;;;;;;13.53;6.10;;;;;;;12.83;100.00;100742.09;5006625;28;20223;-71
2023/09/02 03:41:29;;;;;;;10.67;5.10;;;;;;;12.85;100.00;100746.53;5025369;28;20207;-72
2023/09/02 03:43:56;;;;;;;8.33;4.77;;;;;;;12.81;100.00;100751.81;5003218;28;20193;-71
2023/09/02 03:46:25;;;;;;;8.07;4.60;;;;;;;12.79;100.00;100751.75;5005496;28;20196;-71
2023/09/02 03:48:52;;;;;;;8.73;4.43;;;;;;;12.81;100.00;100755.34;5000188;28;20770;-72
2023/09/02 03:51:19;;;;;;;6.50;4.20;;;;;;;12.93;100.00;100749.25;4999874;28;20223;-73
2023/09/02 03:53:45;;;;;;;7.10;3.77;;;;;;;12.93;100.00;100743.94;4998646;28;20228;-71
2023/09/02 03:56:12;;;;;;;7.97;3.90;;;;;;;12.92;100.00;100752.81;5016672;28;20204;-73
2023/09/02 03:58:39;;;;;;;5.40;3.40;;;;;;;12.95;100.00;100755.47;5005320;28;20482;-71
2023/09/02 04:01:05;;;;;;;7.07;4.03;;;;;;;12.97;100.00;100761.72;5001866;28;20210;-71
2023/09/02 04:03:36;;;;;;;6.60;3.60;;;;;;;12.99;100.00;100756.41;5007149;28;20196;-71
2023/09/02 04:06:04;;;;;;;4.20;3.27;;;;;;;13.01;100.00;100752.88;5004753;28;20200;-73
2023/09/02 04:08:34;;;;;;;5.03;3.00;;;;;;;13.02;100.00;100752.00;5001867;28;20200;-72
2023/09/02 04:11:02;;;;;;;5.60;3.13;;;;;;;13.02;100.00;100756.44;5005007;28;20292;-72
2023/09/02 04:13:29;;;;;;;4.30;3.10;;;;;;;13.03;100.00;100748.47;5009853;28;20356;-72
2023/09/02 04:15:59;;;;;;;6.10;3.37;;;;;;;13.03;100.00;100745.81;5006631;28;20196;-71
2023/09/02 04:18:25;;;;;;;6.27;3.00;;;;;;;13.09;100.00;100747.63;5008575;28;20204;-72
2023/09/02 04:20:52;;;;;;;4.10;2.90;;;;;;;13.17;100.00;100751.28;4997603;23;21245;-74
2023/09/02 04:23:21;;;;;;;7.77;2.70;;;;;;;13.09;100.00;100745.84;4979369;28;20211;-73
2023/09/02 04:25:50;;;;;;;3.87;2.63;;;;;;;13.09;100.00;100751.19;4980591;28;20240;-75
2023/09/02 04:28:17;;;;;;;4.47;2.60;;;;;;;13.08;100.00;100752.06;4986464;28;20212;-74
2023/09/02 04:30:44;;;;;;;3.53;2.77;;;;;;;13.08;100.00;100757.38;4972252;28;20316;-72
2023/09/02 04:33:12;;;;;;;3.60;2.40;;;;;;;13.07;100.00;100752.94;4968869;28;20588;-73
2023/09/02 04:35:43;;;;;;;3.50;2.47;;;;;;;13.10;100.00;100749.41;4979987;28;20631;-74
2023/09/02 04:38:10;;;;;;;2.80;2.50;;;;;;;13.10;100.00;100750.28;4962535;28;20206;-72
2023/09/02 04:40:40;;;;;;;3.80;2.60;;;;;;;13.12;100.00;100752.97;4967383;28;20231;-76
2023/09/02 04:43:08;;;;;;;3.87;2.50;;;;;;;13.14;100.00;100762.75;4967727;28;20202;-73
2023/09/02 04:45:36;;;;;;;3.40;2.60;;;;;;;13.14;100.00;100754.75;4962355;28;20276;-74
2023/09/02 04:48:03;;;;;;;4.70;3.20;;;;;;;13.20;100.00;100755.72;4966959;28;20208;-74
2023/09/02 04:50:31;;;;;;;4.93;2.43;;;;;;;13.19;100.00;100754.84;4969323;28;20316;-72
2023/09/02 04:52:58;;;;;;;4.20;2.70;;;;;;;13.21;100.00;100755.78;4983130;28;20308;-73
2023/09/02 04:55:25;;;;;;;3.90;2.50;;;;;;;13.24;100.00;100755.78;4967117;28;20202;-72
2023/09/02 04:57:52;;;;;;;4.20;2.83;;;;;;;13.31;100.00;100746.97;4966688;28;20201;-76
2023/09/02 05:00:20;;;;;;;4.97;2.23;;;;;;;13.38;100.00;100755.91;4961519;28;20236;-74
2023/09/02 05:02:46;;;;;;;5.23;2.30;;;;;;;13.39;100.00;100753.25;4966851;28;20713;-72
2023/09/02 05:05:14;;;;;;;3.57;2.60;;;;;;;13.49;100.00;100755.09;4968492;28;20289;-73
2023/09/02 05:07:40;;;;;;;5.47;2.87;;;;;;;13.58;100.00;100764.91;4968748;28;20290;-73
2023/09/02 05:10:08;;;;;;;4.70;2.53;;;;;;;13.65;100.00;100769.41;4973401;28;20237;-75
2023/09/02 05:12:34;;;;;;;4.70;2.70;;;;;;;13.72;100.00;100768.56;4967191;28;20212;-76
2023/09/02 05:15:01;;;;;;;3.07;2.63;;;;;;;13.76;100.00;100770.38;4968142;28;20985;-73
2023/09/02 05:17:27;;;;;;;4.23;2.37;;;;;;;13.84;100.00;100767.75;4968191;28;20209;-74
2023/09/02 05:19:54;;;;;;;2.40;2.10;;;;;;;13.88;100.00;100766.88;4967296;28;20236;-73
2023/09/02 05:22:20;;;;;;;3.97;2.37;;;;;;;14.01;100.00;100765.19;4969515;28;20218;-73
2023/09/02 05:24:46;;;;;;;3.53;2.50;;;;;;;14.10;100.00;100773.22;4968191;28;20292;-75
2023/09/02 05:27:13;;;;;;;3.13;2.37;;;;;;;14.19;100.00;100767.94;4968944;28;20212;-74
2023/09/02 05:29:39;;;;;;;3.63;2.40;;;;;;;14.23;100.00;100769.72;4980197;28;20218;-74
2023/09/02 05:32:08;;;;;;;2.90;2.50;;;;;;;14.34;100.00;100772.44;4969067;28;20241;-72
2023/09/02 05:34:35;;;;;;;3.50;2.77;;;;;;;14.37;100.00;100778.66;4966076;28;20221;-71
2023/09/02 05:37:02;;;;;;;4.23;2.77;;;;;;;14.36;100.00;100778.66;4968522;28;20252;-73
2023/09/02 05:39:29;;;;;;;3.50;2.27;;;;;;;14.36;100.00;100768.00;4968848;28;20221;-74
2023/09/02 05:41:55;;;;;;;7.30;3.10;;;;;;;14.50;100.00;100776.09;4967412;28;20221;-75
2023/09/02 05:44:21;;;;;;;5.27;2.50;;;;;;;14.58;100.00;100780.56;4975153;28;20288;-73
2023/09/02 05:46:48;;;;;;;5.07;2.80;;;;;;;14.72;100.00;100785.94;4967191;28;21989;-75
2023/09/02 05:49:14;;;;;;;4.73;2.60;;;;;;;14.80;100.00;100793.94;4968065;28;20308;-74
2023/09/02 05:51:41;;;;;;;3.30;2.40;;;;;;;14.95;100.00;100788.66;4968484;28;20288;-73
2023/09/02 05:54:09;;;;;;;4.20;2.60;;;;;;;14.98;100.00;100794.00;4968726;28;20313;-74
2023/09/02 05:56:36;;;;;;;5.30;2.50;;;;;;;15.07;100.00;100783.34;4966962;28;20292;-74
2023/09/02 05:59:03;;;;;;;3.27;2.47;;;;;;;15.13;100.00;100791.34;4967507;28;20314;-75
2023/09/02 06:01:30;;;;;;;3.13;2.40;;;;;;;15.26;100.00;100789.63;4967143;28;20206;-74
2023/09/02 06:03:57;;;;;;;2.60;2.20;;;;;;;15.35;100.00;100787.84;4967493;28;20255;-74
2023/09/02 06:06:23;;;;;;;4.50;2.20;;;;;;;15.46;100.00;100798.50;4981217;28;20217;-74
2023/09/02 06:08:50;;;;;;;3.50;2.23;;;;;;;15.58;100.00;100790.50;4973706;28;20208;-73
2023/09/02 06:11:16;;;;;;;3.37;2.10;;;;;;;15.74;100.00;100791.41;4967569;28;20403;-73
2023/09/02 06:13:43;;;;;;;4.10;2.20;;;;;;;15.91;100.00;100796.72;4965769;28;20615;-74
2023/09/02 06:16:09;;;;;;;2.83;2.20;;;;;;;15.95;100.00;100798.47;4967220;28;20591;-75
2023/09/02 06:18:36;;;;;;;3.50;2.37;;;;;;;16.06;100.00;100795.81;4967286;28;20213;-75
2023/09/02 06:21:13;;;;;;;4.53;2.60;;;;;;;16.25;100.00;100789.50;4972959;28;20311;-73
2023/09/02 06:23:44;;;;;;;4.03;2.27;;;;;;;16.52;100.00;100802.78;4968474;28;20248;-74
2023/09/02 06:26:14;;;;;;;4.20;2.27;;;;;;;16.78;100.00;100793.75;4966069;28;20213;-74
2023/09/02 06:28:40;;;;;;;3.17;2.10;;;;;;;17.11;100.00;100795.34;4967328;28;20673;-74
2023/09/02 06:31:08;;;;;;;3.47;2.10;;;;;;;17.29;100.00;100795.22;4964494;28;20287;-74
2023/09/02 06:33:35;;;;;;;4.53;3.27;;;;;;;17.50;100.00;100795.03;4967859;28;20740;-74
2023/09/02 06:36:12;;;;;;;4.43;2.77;;;;;;;17.78;100.00;100802.88;4966716;28;20209;-74
2023/09/02 06:38:39;;;;;;;4.43;3.10;;;;;;;17.99;100.00;100796.41;4967468;28;20197;-74
2023/09/02 06:41:13;;;;;;;8.88;4.07;;;;;;;18.31;100.00;100796.94;4961091;28;20673;-75
2023/09/02 06:43:40;;;;;;;8.25;5.00;;;;;;;18.63;100.00;100801.94;4979576;28;20291;-74
2023/09/02 06:46:08;;;;;;;6.43;4.07;;;;;;;18.85;100.00;100815.09;4968287;28;20335;-73
2023/09/02 06:48:35;;;;;;;7.13;4.20;;;;;;;18.87;100.00;100808.78;4970853;28;20236;-73
2023/09/02 06:51:01;;;;;;;5.43;3.67;;;;;;;18.92;100.00;100814.97;4968301;28;20605;-74
2023/09/02 06:53:28;;;;;;;9.15;4.30;;;;;;;18.90;100.00;100821.28;4972016;28;20709;-73
2023/09/02 06:55:54;;;;;;;6.18;4.15;;;;;;;18.79;100.00;100819.59;4984482;28;20214;-74
2023/09/02 06:58:20;;;;;;;6.55;4.20;;;;;;;18.89;100.00;100824.88;4969497;28;20292;-74
2023/09/02 07:00:48;;;;;;;6.25;4.50;;;;;;;18.92;100.00;100838.25;4965113;28;20225;-73
2023/09/02 07:03:15;;;;;;;5.70;3.83;;;;;;;18.90;100.00;100838.28;4969714;28;20227;-73
2023/09/02 07:05:41;;;;;;;5.80;4.63;;;;;;;18.97;100.00;100841.75;4987994;28;20743;-73
2023/09/02 07:08:09;;;;;;;5.38;3.63;;;;;;;18.97;100.00;100848.00;4973052;28;20209;-73
2023/09/02 07:10:36;;;;;;;5.70;4.28;;;;;;;19.09;100.00;100852.31;4981180;28;20313;-73
2023/09/02 07:13:02;;;;;;;7.70;4.53;;;;;;;19.17;100.00;100847.72;4985973;28;20206;-73
2023/09/02 07:15:29;;;;;;;6.93;4.68;;;;;;;19.08;100.00;100855.91;4969583;28;20219;-73
2023/09/02 07:17:55;;;;;;;7.32;4.15;;;;;;;19.10;100.00;100854.09;4971631;28;20210;-73
2023/09/02 07:20:21;;;;;;;6.65;3.95;;;;;;;19.11;100.00;100855.88;4972442;28;20233;-73
2023/09/02 07:22:48;;;;;;;6.25;4.50;;;;;;;19.06;100.00;100857.72;4968864;28;20316;-73
2023/09/02 07:25:14;;;;;;;4.68;4.03;;;;;;;19.04;100.00;100857.75;4970445;28;20207;-73
2023/09/02 07:27:41;;;;;;;5.53;4.20;;;;;;;19.06;100.00;100866.66;4983058;28;20217;-73
2023/09/02 07:30:07;;;;;;;5.43;4.22;;;;;;;19.17;100.00;100873.69;4973850;28;20227;-73
2023/09/02 07:32:34;;;;;;;6.80;4.80;;;;;;;19.32;100.00;100877.06;4969413;28;20212;-73
2023/09/02 07:35:00;;;;;;;7.72;5.55;;;;;;;19.33;100.00;100876.13;4970658;28;20366;-74
2023/09/02 07:37:27;;;;;;;8.85;5.43;;;;;;;19.34;100.00;100877.91;4964761;28;20217;-74
2023/09/02 07:39:53;;;;;;;6.95;5.22;;;;;;;19.57;100.00;100879.38;4966936;28;20225;-74
2023/09/02 07:42:19;;;;;;;7.53;6.00;;;;;;;19.68;100.00;100880.13;4969831;28;20233;-73
2023/09/02 07:44:46;;;;;;;8.00;5.25;;;;;;;19.77;100.00;100884.47;4968988;28;20297;-73
2023/09/02 07:47:12;;;;;;;5.57;4.57;;;;;;;19.94;100.00;100876.97;4961585;28;20211;-75
2023/09/02 07:49:38;;;;;;;7.97;6.22;;;;;;;19.93;100.00;100889.53;4969126;28;20533;-74
2023/09/02 07:52:05;;;;;;;7.97;5.78;;;;;;;20.02;100.00;100893.91;4968838;28;20213;-74
2023/09/02 07:54:31;;;;;;;7.68;6.47;;;;;;;20.22;100.00;100899.78;4976320;28;20252;-75
2023/09/02 07:56:58;;;;;;;8.05;6.80;;;;;;;20.30;100.00;100896.97;4965443;28;20210;-72
2023/09/02 07:59:24;;;;;;;10.45;7.60;;;;;;;20.32;100.00;100897.81;4968433;28;20697;-75
2023/09/02 08:01:50;;;;;;;8.68;6.00;;;;;;;20.30;100.00;100899.66;4967466;28;20267;-72
2023/09/02 08:04:17;;;;;;;7.35;5.30;;;;;;;20.37;100.00;100901.31;4973278;28;20209;-72
2023/09/02 08:06:43;;;;;;;6.28;4.60;;;;;;;20.65;100.00;100902.59;4967528;28;20227;-75
2023/09/02 08:09:10;;;;;;;5.95;5.07;;;;;;;20.75;100.00;100905.09;4968486;28;20591;-72
2023/09/02 08:11:36;;;;;;;6.95;5.57;;;;;;;20.97;100.00;100911.84;4966719;28;20234;-72
2023/09/02 08:14:03;;;;;;;7.60;5.22;;;;;;;21.04;100.00;100912.59;4966892;28;20222;-72
2023/09/02 08:16:29;;;;;;;6.10;4.72;;;;;;;21.47;100.00;100908.06;4966236;28;20592;-72
2023/09/02 08:18:55;;;;;;;8.98;6.60;;;;;;;21.95;100.00;100915.88;4967242;28;20294;-74
2023/09/02 08:21:22;;;;;;;7.55;5.65;;;;;;;22.41;100.00;100906.63;4968553;28;20235;-73
2023/09/02 08:23:48;;;;;;;7.10;5.43;;;;;;;22.55;100.00;100914.38;4969002;28;20218;-72
2023/09/02 08:26:14;;;;;;;6.68;4.65;;;;;;;22.77;100.00;100902.03;4965620;28;20574;-73
2023/09/02 08:28:41;;;;;;;6.78;4.40;;;;;;;22.84;100.00;100903.69;4965904;28;20205;-73
2023/09/02 08:31:11;;;;;;;7.68;4.88;;;;;;;22.92;100.00;100898.94;4965937;28;20288;-73
2023/09/02 08:33:38;;;;;;;6.50;4.50;;;;;;;22.85;100.00;100885.66;4963734;28;20694;-76
2023/09/02 08:36:04;;;;;;;5.40;3.75;;;;;;;22.77;100.00;100893.94;4965972;28;20210;-73
2023/09/02 08:38:32;;;;;;;4.95;3.90;;;;;;;22.67;100.00;100896.00;4965266;28;20694;-73
2023/09/02 08:41:04;;;;;;;4.50;3.80;;;;;;;22.68;100.00;100897.78;4966409;28;20228;-74
2023/09/02 08:43:31;;;;;;;4.65;3.88;;;;;;;22.61;100.00;100898.00;4967559;28;20686;-74
2023/09/02 08:46:00;;;;;;;4.30;3.70;;;;;;;22.64;100.00;100903.31;4968207;28;20201;-73
2023/09/02 08:48:32;;;;;;;6.65;5.47;;;;;;;22.44;100.00;100893.97;4966527;28;20201;-73
2023/09/02 08:50:59;;;;;;;5.43;4.78;;;;;;;22.34;100.00;100900.50;4963784;28;20688;-74
2023/09/02 08:53:28;;;;;;;5.15;4.38;;;;;;;22.28;100.00;100905.19;4965863;28;20202;-73
2023/09/02 08:55:56;;;;;;;5.00;4.50;;;;;;;22.16;100.00;100909.13;4958371;28;20233;-75
2023/09/02 08:58:23;;;;;;;5.38;4.07;;;;;;;21.98;100.00;100913.09;4966621;28;20197;-74
2023/09/02 09:00:51;;;;;;;6.03;4.43;;;;;;;21.88;100.00;100912.47;4968599;28;20221;-73
2023/09/02 09:03:19;;;;;;;5.80;4.25;;;;;;;21.49;100.00;100908.91;4965774;28;20220;-72
2023/09/02 09:05:48;;;;;;;6.03;4.18;;;;;;;21.34;100.00;100911.06;4962660;28;20202;-73
2023/09/02 09:08:16;;;;;;;5.57;3.78;;;;;;;21.38;100.00;100918.16;4982273;28;20201;-75
2023/09/02 09:10:43;;;;;;;5.47;4.50;;;;;;;21.41;100.00;100916.28;4966870;28;20257;-72
2023/09/02 09:13:13;;;;;;;6.30;4.75;;;;;;;21.20;100.00;100916.72;4960205;28;20682;-72
2023/09/02 09:15:41;;;;;;;5.03;3.85;;;;;;;21.19;100.00;100909.56;4978054;28;20651;-73
2023/09/02 09:18:09;;;;;;;5.78;3.83;;;;;;;21.38;100.00;100918.16;4962409;28;20221;-78
2023/09/02 09:20:36;;;;;;;5.20;3.55;;;;;;;21.64;100.00;100926.56;4964519;28;20225;-74
2023/09/02 09:23:07;;;;;;;7.13;3.78;;;;;;;21.70;100.00;100912.91;4963287;28;20670;-72
2023/09/02 09:25:37;;;;;;;6.28;3.40;;;;;;;21.73;100.00;100918.25;4962377;28;20204;-73
2023/09/02 09:28:08;;;;;;;3.92;2.80;;;;;;;21.95;100.00;100913.19;4963034;28;20720;-73
2023/09/02 09:30:35;;;;;;;3.50;2.60;;;;;;;22.13;100.00;100917.28;4967777;28;20229;-72
2023/09/02 09:33:04;;;;;;;3.90;2.60;;;;;;;22.23;100.00;100907.13;4966191;28;20670;-71
2023/09/02 09:35:32;;;;;;;3.63;2.97;;;;;;;22.22;100.00;100918.84;4961649;28;20225;-72
2023/09/02 09:37:59;;;;;;;3.45;2.10;;;;;;;22.15;100.00;100929.81;4961274;28;20212;-71
2023/09/02 09:40:33;;;;;;;3.83;2.30;;;;;;;21.83;100.00;100926.97;4964821;28;20221;-70
2023/09/02 09:43:01;;;;;;;3.03;2.03;;;;;;;21.88;100.00;100922.38;4983096;28;20292;-70
2023/09/02 09:45:29;;;;;;;7.72;2.53;;;;;;;21.83;100.00;100933.25;4969856;28;20209;-70
2023/09/02 09:48:08;;;;;;;3.13;2.50;;;;;;;21.96;100.00;100939.22;4969091;28;20198;-71
2023/09/02 09:50:34;;;;;;;4.75;2.30;;;;;;;22.19;100.00;100928.81;4978189;28;20225;-70
2023/09/02 09:53:04;;;;;;;3.70;1.88;;;;;;;22.54;100.00;100928.81;4968272;28;20587;-70
2023/09/02 09:55:33;;;;;;;2.45;2.20;;;;;;;22.69;100.00;100933.78;4968695;28;20260;-71
2023/09/02 09:58:00;;;;;;;2.80;2.15;;;;;;;22.91;100.00;100929.59;4965110;28;20209;-71
2023/09/02 10:00:27;;;;;;;3.25;2.53;;;;;;;23.04;100.00;100924.69;4969453;28;20257;-71
2023/09/02 10:02:55;;;;;;;3.15;2.65;;;;;;;23.20;100.00;100927.81;4968083;28;20209;-70
2023/09/02 10:05:30;;;;;;;4.18;2.95;;;;;;;23.26;100.00;100931.25;4968653;28;20202;-71
2023/09/02 10:08:07;;;;;;;5.90;2.58;;;;;;;23.47;100.00;100935.09;4967406;28;20208;-71
2023/09/02 10:10:38;;;;;;;6.20;2.70;;;;;;;23.47;100.00;100932.41;4968640;28;20576;-71
2023/09/02 10:13:05;;;;;;;3.88;3.00;;;;;;;23.54;100.00;100923.16;4966237;28;20206;-70
2023/09/02 10:15:32;;;;;;;3.83;2.70;;;;;;;23.67;100.00;100935.41;4968049;28;20697;-71
2023/09/02 10:18:00;;;;;;;2.90;2.50;;;;;;;23.80;100.00;100935.00;4969189;28;20280;-71
2023/09/02 10:20:29;;;;;;;3.55;2.78;;;;;;;23.79;100.00;100927.81;4968941;28;20713;-72
2023/09/02 10:23:08;;;;;;;4.75;2.63;;;;;;;23.87;100.00;100926.63;4968200;28;20276;-72
2023/09/02 10:25:44;;;;;;;4.60;2.30;;;;;;;23.99;100.00;100938.88;4967424;28;20288;-72
2023/09/02 10:28:22;;;;;;;3.63;2.30;;;;;;;24.12;100.00;100936.66;4982315;28;20827;-72
2023/09/02 10:30:51;;;;;;;3.20;2.83;;;;;;;24.05;100.00;100933.28;4968625;28;20308;-71
2023/09/02 10:33:29;;;;;;;3.80;1.95;;;;;;;24.18;100.00;100925.63;4966104;28;20205;-71
2023/09/02 10:36:00;;;;;;;3.70;2.67;;;;;;;24.33;100.00;100920.59;4967574;28;20344;-72
2023/09/02 10:38:31;;;;;;;2.55;2.00;;;;;;;24.33;100.00;100917.88;4980677;28;20301;-72
2023/09/02 10:41:11;;;;;;;2.22;1.80;;;;;;;24.01;100.00;100921.63;4966552;28;20602;-71
2023/09/02 10:43:39;;;;;;;2.45;2.15;;;;;;;23.66;100.00;100921.94;4968126;28;20681;-71
2023/09/02 10:46:08;;;;;;;2.92;2.08;;;;;;;23.66;100.00;100912.00;4968473;28;20653;-74
2023/09/02 10:48:44;;;;;;;5.32;1.92;;;;;;;23.72;100.00;100906.38;4968825;28;20252;-71
2023/09/02 10:51:12;;;;;;;2.72;1.50;;;;;;;23.90;100.00;100906.72;4967462;28;20225;-71
2023/09/02 10:53:48;;;;;;;4.30;1.50;;;;;;;23.94;100.00;100914.66;4983484;28;20233;-72
2023/09/02 10:56:34;;;;;;;1.65;1.55;;;;;;;24.17;100.00;100908.50;4967126;28;20235;-71
2023/09/02 10:59:03;;;;;;;1.58;1.35;;;;;;;24.12;100.00;100925.84;4967951;28;20527;-71
2023/09/02 11:01:49;;;;;;;2.22;1.40;;;;;;;24.15;100.00;100918.50;4968897;28;20613;-71
2023/09/02 11:04:41;;;;;;;2.90;1.48;;;;;;;24.17;100.00;100910.31;4967861;28;20212;-71
2023/09/02 11:07:32;;;;;;;1.85;1.40;;;;;;;24.22;100.00;100908.34;4985536;28;20689;-72
2023/09/02 11:09:59;;;;;;;3.45;1.52;;;;;;;24.46;100.00;100914.75;4972315;28;20225;-72
2023/09/02 11:12:26;;;;;;;1.45;1.23;;;;;;;24.47;96.47;100911.09;4968228;28;20309;-71
2023/09/02 11:15:08;;;;;;;1.42;1.10;;;;;;;24.59;95.07;100908.84;4986954;28;20225;-71
2023/09/02 11:17:39;;;;;;;1.25;1.13;;;;;;;24.51;88.02;100905.53;4972624;28;20293;-74
2023/09/02 11:20:07;;;;;;;2.67;1.73;;;;;;;24.62;89.45;100891.59;4966881;28;20601;-72
2023/09/02 11:23:09;;;;;;;3.83;2.10;;;;;;;24.79;79.38;100896.38;4972222;28;20201;-71